sensor_id;sensor_type;location;lat;lon;timestamp;P1;durP1;ratioP1;P2;durP2;ratioP2
1446;SDS011;717;51.522;7.266;2022-08-21T00:00:16;5.95;;;2.60;;
1446;SDS011;717;51.522;7.266;2022-08-21T00:02:44;5.18;;;2.80;;
1446;SDS011;717;51.522;7.266;2022-08-21T00:05:15;5.25;;;2.88;;
1446;SDS011;717;51.522;7.266;2022-08-21T00:07:43;5.75;;;2.80;;
1446;SDS011;717;51.522;7.266;2022-08-21T00:10:10;5.57;;;2.65;;
1446;SDS011;717;51.522;7.266;2022-08-21T00:12:38;5.93;;;3.00;;
1446;SDS011;717;51.522;7.266;2022-08-21T00:15:06;4.80;;;2.72;;
1446;SDS011;717;51.522;7.266;2022-08-21T00:17:35;5.95;;;2.85;;
1446;SDS011;717;51.522;7.266;2022-08-21T00:20:03;5.20;;;2.95;;
1446;SDS011;717;51.522;7.266;2022-08-21T00:22:31;3.42;;;2.60;;
1446;SDS011;717;51.522;7.266;2022-08-21T00:24:59;5.00;;;3.17;;
1446;SDS011;717;51.522;7.266;2022-08-21T00:27:26;3.33;;;2.47;;
1446;SDS011;717;51.522;7.266;2022-08-21T00:29:52;4.60;;;2.83;;
1446;SDS011;717;51.522;7.266;2022-08-21T00:32:20;5.07;;;3.05;;
1446;SDS011;717;51.522;7.266;2022-08-21T00:34:48;6.70;;;2.90;;
1446;SDS011;717;51.522;7.266;2022-08-21T00:37:15;7.38;;;3.50;;
1446;SDS011;717;51.522;7.266;2022-08-21T00:39:42;6.35;;;3.25;;
1446;SDS011;717;51.522;7.266;2022-08-21T00:42:10;6.45;;;3.13;;
1446;SDS011;717;51.522;7.266;2022-08-21T00:44:39;5.20;;;2.88;;
1446;SDS011;717;51.522;7.266;2022-08-21T00:47:07;6.82;;;3.22;;
1446;SDS011;717;51.522;7.266;2022-08-21T00:49:34;4.57;;;3.10;;
1446;SDS011;717;51.522;7.266;2022-08-21T00:52:02;7.15;;;3.60;;
1446;SDS011;717;51.522;7.266;2022-08-21T00:54:31;6.03;;;3.30;;
1446;SDS011;717;51.522;7.266;2022-08-21T00:57:00;4.55;;;3.40;;
1446;SDS011;717;51.522;7.266;2022-08-21T00:59:33;3.97;;;3.10;;
1446;SDS011;717;51.522;7.266;2022-08-21T01:02:02;6.03;;;3.75;;
1446;SDS011;717;51.522;7.266;2022-08-21T01:04:29;5.60;;;3.67;;
1446;SDS011;717;51.522;7.266;2022-08-21T01:06:56;5.38;;;3.58;;
1446;SDS011;717;51.522;7.266;2022-08-21T01:09:23;5.75;;;3.75;;
1446;SDS011;717;51.522;7.266;2022-08-21T01:11:50;5.32;;;3.65;;
1446;SDS011;717;51.522;7.266;2022-08-21T01:14:17;7.72;;;3.75;;
1446;SDS011;717;51.522;7.266;2022-08-21T01:16:46;8.07;;;4.35;;
1446;SDS011;717;51.522;7.266;2022-08-21T01:19:17;6.80;;;4.22;;
1446;SDS011;717;51.522;7.266;2022-08-21T01:21:47;7.35;;;4.13;;
1446;SDS011;717;51.522;7.266;2022-08-21T01:24:14;6.32;;;4.20;;
1446;SDS011;717;51.522;7.266;2022-08-21T01:26:41;5.88;;;4.20;;
1446;SDS011;717;51.522;7.266;2022-08-21T01:29:11;6.40;;;4.05;;
1446;SDS011;717;51.522;7.266;2022-08-21T01:31:42;5.85;;;3.95;;
1446;SDS011;717;51.522;7.266;2022-08-21T01:34:10;8.32;;;4.10;;
1446;SDS011;717;51.522;7.266;2022-08-21T01:36:40;5.45;;;4.55;;
1446;SDS011;717;51.522;7.266;2022-08-21T01:39:09;6.72;;;4.07;;
1446;SDS011;717;51.522;7.266;2022-08-21T01:41:36;6.70;;;4.05;;
1446;SDS011;717;51.522;7.266;2022-08-21T01:44:02;5.80;;;4.55;;
1446;SDS011;717;51.522;7.266;2022-08-21T01:46:30;9.43;;;4.95;;
1446;SDS011;717;51.522;7.266;2022-08-21T01:48:57;8.93;;;4.47;;
1446;SDS011;717;51.522;7.266;2022-08-21T01:51:25;5.90;;;4.03;;
1446;SDS011;717;51.522;7.266;2022-08-21T01:53:51;7.38;;;3.88;;
1446;SDS011;717;51.522;7.266;2022-08-21T01:56:20;7.53;;;4.85;;
1446;SDS011;717;51.522;7.266;2022-08-21T01:58:47;6.30;;;4.15;;
1446;SDS011;717;51.522;7.266;2022-08-21T02:01:13;6.55;;;4.05;;
1446;SDS011;717;51.522;7.266;2022-08-21T02:03:40;8.32;;;4.78;;
1446;SDS011;717;51.522;7.266;2022-08-21T02:06:11;5.57;;;4.30;;
1446;SDS011;717;51.522;7.266;2022-08-21T02:08:39;6.07;;;4.20;;
1446;SDS011;717;51.522;7.266;2022-08-21T02:11:06;7.65;;;4.90;;
1446;SDS011;717;51.522;7.266;2022-08-21T02:13:34;6.20;;;4.65;;
1446;SDS011;717;51.522;7.266;2022-08-21T02:16:01;6.97;;;4.70;;
1446;SDS011;717;51.522;7.266;2022-08-21T02:18:28;6.05;;;4.32;;
1446;SDS011;717;51.522;7.266;2022-08-21T02:20:55;7.18;;;4.18;;
1446;SDS011;717;51.522;7.266;2022-08-21T02:23:22;6.43;;;4.85;;
1446;SDS011;717;51.522;7.266;2022-08-21T02:25:49;8.38;;;4.68;;
1446;SDS011;717;51.522;7.266;2022-08-21T02:28:16;6.28;;;4.53;;
1446;SDS011;717;51.522;7.266;2022-08-21T02:30:45;6.53;;;4.75;;
1446;SDS011;717;51.522;7.266;2022-08-21T02:33:13;8.35;;;4.50;;
1446;SDS011;717;51.522;7.266;2022-08-21T02:35:41;8.27;;;4.97;;
1446;SDS011;717;51.522;7.266;2022-08-21T02:38:10;6.15;;;4.68;;
1446;SDS011;717;51.522;7.266;2022-08-21T02:40:40;8.95;;;4.72;;
1446;SDS011;717;51.522;7.266;2022-08-21T02:43:08;8.27;;;4.60;;
1446;SDS011;717;51.522;7.266;2022-08-21T02:45:35;5.72;;;4.30;;
1446;SDS011;717;51.522;7.266;2022-08-21T02:48:06;7.45;;;4.43;;
1446;SDS011;717;51.522;7.266;2022-08-21T02:50:35;7.65;;;4.97;;
1446;SDS011;717;51.522;7.266;2022-08-21T02:53:04;6.65;;;3.95;;
1446;SDS011;717;51.522;7.266;2022-08-21T02:55:32;5.75;;;3.92;;
1446;SDS011;717;51.522;7.266;2022-08-21T02:58:00;5.88;;;4.18;;
1446;SDS011;717;51.522;7.266;2022-08-21T03:00:29;8.38;;;4.82;;
1446;SDS011;717;51.522;7.266;2022-08-21T03:02:57;5.95;;;4.43;;
1446;SDS011;717;51.522;7.266;2022-08-21T03:05:27;6.63;;;4.18;;
1446;SDS011;717;51.522;7.266;2022-08-21T03:07:56;5.32;;;4.38;;
1446;SDS011;717;51.522;7.266;2022-08-21T03:10:24;7.65;;;4.40;;
1446;SDS011;717;51.522;7.266;2022-08-21T03:12:52;5.60;;;4.10;;
1446;SDS011;717;51.522;7.266;2022-08-21T03:15:19;8.30;;;4.60;;
1446;SDS011;717;51.522;7.266;2022-08-21T03:17:48;7.70;;;4.43;;
1446;SDS011;717;51.522;7.266;2022-08-21T03:20:18;5.85;;;4.30;;
1446;SDS011;717;51.522;7.266;2022-08-21T03:22:49;5.63;;;4.60;;
1446;SDS011;717;51.522;7.266;2022-08-21T03:25:16;7.20;;;4.80;;
1446;SDS011;717;51.522;7.266;2022-08-21T03:27:43;7.53;;;4.45;;
1446;SDS011;717;51.522;7.266;2022-08-21T03:30:10;6.90;;;4.43;;
1446;SDS011;717;51.522;7.266;2022-08-21T03:32:38;5.50;;;4.55;;
1446;SDS011;717;51.522;7.266;2022-08-21T03:35:06;8.88;;;5.05;;
1446;SDS011;717;51.522;7.266;2022-08-21T03:37:33;5.38;;;4.38;;
1446;SDS011;717;51.522;7.266;2022-08-21T03:40:02;5.90;;;4.20;;
1446;SDS011;717;51.522;7.266;2022-08-21T03:42:29;6.13;;;4.38;;
1446;SDS011;717;51.522;7.266;2022-08-21T03:44:55;6.10;;;4.60;;
1446;SDS011;717;51.522;7.266;2022-08-21T03:47:22;7.45;;;4.68;;
1446;SDS011;717;51.522;7.266;2022-08-21T03:49:49;7.40;;;4.32;;
1446;SDS011;717;51.522;7.266;2022-08-21T03:52:16;5.55;;;4.45;;
1446;SDS011;717;51.522;7.266;2022-08-21T03:54:43;7.55;;;4.22;;
1446;SDS011;717;51.522;7.266;2022-08-21T03:57:12;6.65;;;4.07;;
1446;SDS011;717;51.522;7.266;2022-08-21T03:59:39;5.53;;;4.30;;
1446;SDS011;717;51.522;7.266;2022-08-21T04:02:06;8.38;;;4.80;;
1446;SDS011;717;51.522;7.266;2022-08-21T04:04:33;7.05;;;5.18;;
1446;SDS011;717;51.522;7.266;2022-08-21T04:07:01;6.22;;;4.80;;
1446;SDS011;717;51.522;7.266;2022-08-21T04:09:28;7.60;;;4.95;;
1446;SDS011;717;51.522;7.266;2022-08-21T04:11:55;6.53;;;5.03;;
1446;SDS011;717;51.522;7.266;2022-08-21T04:14:24;7.25;;;4.35;;
1446;SDS011;717;51.522;7.266;2022-08-21T04:16:51;7.35;;;4.82;;
1446;SDS011;717;51.522;7.266;2022-08-21T04:19:18;10.30;;;5.10;;
1446;SDS011;717;51.522;7.266;2022-08-21T04:21:44;6.82;;;4.90;;
1446;SDS011;717;51.522;7.266;2022-08-21T04:24:11;5.65;;;5.10;;
1446;SDS011;717;51.522;7.266;2022-08-21T04:26:38;8.82;;;4.88;;
1446;SDS011;717;51.522;7.266;2022-08-21T04:29:05;7.15;;;4.93;;
1446;SDS011;717;51.522;7.266;2022-08-21T04:31:33;6.60;;;4.95;;
1446;SDS011;717;51.522;7.266;2022-08-21T04:34:01;8.15;;;5.03;;
1446;SDS011;717;51.522;7.266;2022-08-21T04:36:29;7.50;;;5.53;;
1446;SDS011;717;51.522;7.266;2022-08-21T04:38:56;6.80;;;5.07;;
1446;SDS011;717;51.522;7.266;2022-08-21T04:41:23;7.18;;;4.95;;
1446;SDS011;717;51.522;7.266;2022-08-21T04:43:50;6.97;;;4.82;;
1446;SDS011;717;51.522;7.266;2022-08-21T04:46:17;5.97;;;4.75;;
1446;SDS011;717;51.522;7.266;2022-08-21T04:48:45;7.00;;;4.88;;
1446;SDS011;717;51.522;7.266;2022-08-21T04:51:15;7.28;;;5.00;;
1446;SDS011;717;51.522;7.266;2022-08-21T04:53:45;7.45;;;4.97;;
1446;SDS011;717;51.522;7.266;2022-08-21T04:56:18;8.05;;;4.82;;
1446;SDS011;717;51.522;7.266;2022-08-21T04:58:47;6.30;;;4.40;;
1446;SDS011;717;51.522;7.266;2022-08-21T05:01:17;7.65;;;4.57;;
1446;SDS011;717;51.522;7.266;2022-08-21T05:03:48;6.38;;;4.80;;
1446;SDS011;717;51.522;7.266;2022-08-21T05:06:18;6.57;;;5.10;;
1446;SDS011;717;51.522;7.266;2022-08-21T05:08:47;5.82;;;4.80;;
1446;SDS011;717;51.522;7.266;2022-08-21T05:11:16;7.45;;;5.30;;
1446;SDS011;717;51.522;7.266;2022-08-21T05:13:44;8.05;;;5.10;;
1446;SDS011;717;51.522;7.266;2022-08-21T05:16:10;11.52;;;5.45;;
1446;SDS011;717;51.522;7.266;2022-08-21T05:18:37;9.63;;;5.30;;
1446;SDS011;717;51.522;7.266;2022-08-21T05:21:05;7.78;;;5.40;;
1446;SDS011;717;51.522;7.266;2022-08-21T05:23:32;8.18;;;5.00;;
1446;SDS011;717;51.522;7.266;2022-08-21T05:26:00;7.53;;;4.80;;
1446;SDS011;717;51.522;7.266;2022-08-21T05:28:26;8.35;;;5.13;;
1446;SDS011;717;51.522;7.266;2022-08-21T05:30:53;8.13;;;4.97;;
1446;SDS011;717;51.522;7.266;2022-08-21T05:33:20;9.52;;;5.22;;
1446;SDS011;717;51.522;7.266;2022-08-21T05:35:49;5.30;;;4.45;;
1446;SDS011;717;51.522;7.266;2022-08-21T05:38:18;6.65;;;4.97;;
1446;SDS011;717;51.522;7.266;2022-08-21T05:40:45;6.93;;;4.32;;
1446;SDS011;717;51.522;7.266;2022-08-21T05:43:13;7.25;;;4.80;;
1446;SDS011;717;51.522;7.266;2022-08-21T05:45:40;4.82;;;4.20;;
1446;SDS011;717;51.522;7.266;2022-08-21T05:48:10;7.18;;;4.72;;
1446;SDS011;717;51.522;7.266;2022-08-21T05:50:38;6.72;;;4.80;;
1446;SDS011;717;51.522;7.266;2022-08-21T05:53:05;5.88;;;4.65;;
1446;SDS011;717;51.522;7.266;2022-08-21T05:55:34;5.93;;;4.35;;
1446;SDS011;717;51.522;7.266;2022-08-21T05:58:02;7.35;;;4.60;;
1446;SDS011;717;51.522;7.266;2022-08-21T06:00:29;6.93;;;4.70;;
1446;SDS011;717;51.522;7.266;2022-08-21T06:02:57;6.55;;;5.20;;
1446;SDS011;717;51.522;7.266;2022-08-21T06:05:23;7.90;;;5.55;;
1446;SDS011;717;51.522;7.266;2022-08-21T06:07:51;10.30;;;5.85;;
1446;SDS011;717;51.522;7.266;2022-08-21T06:10:18;7.85;;;5.53;;
1446;SDS011;717;51.522;7.266;2022-08-21T06:12:46;7.65;;;5.55;;
1446;SDS011;717;51.522;7.266;2022-08-21T06:15:19;10.80;;;5.53;;
1446;SDS011;717;51.522;7.266;2022-08-21T06:17:45;12.13;;;5.80;;
1446;SDS011;717;51.522;7.266;2022-08-21T06:20:12;11.43;;;5.55;;
1446;SDS011;717;51.522;7.266;2022-08-21T06:22:39;8.35;;;5.47;;
1446;SDS011;717;51.522;7.266;2022-08-21T06:25:06;9.57;;;6.05;;
1446;SDS011;717;51.522;7.266;2022-08-21T06:27:34;9.48;;;5.85;;
1446;SDS011;717;51.522;7.266;2022-08-21T06:30:02;9.52;;;6.35;;
1446;SDS011;717;51.522;7.266;2022-08-21T06:32:29;8.90;;;6.80;;
1446;SDS011;717;51.522;7.266;2022-08-21T06:34:56;11.10;;;7.20;;
1446;SDS011;717;51.522;7.266;2022-08-21T06:37:23;10.52;;;7.07;;
1446;SDS011;717;51.522;7.266;2022-08-21T06:39:50;12.23;;;8.20;;
1446;SDS011;717;51.522;7.266;2022-08-21T06:42:17;10.77;;;7.88;;
1446;SDS011;717;51.522;7.266;2022-08-21T06:44:43;10.73;;;8.68;;
1446;SDS011;717;51.522;7.266;2022-08-21T06:47:12;11.50;;;7.35;;
1446;SDS011;717;51.522;7.266;2022-08-21T06:49:39;10.80;;;7.60;;
1446;SDS011;717;51.522;7.266;2022-08-21T06:52:08;11.85;;;7.80;;
1446;SDS011;717;51.522;7.266;2022-08-21T06:54:36;9.57;;;7.10;;
1446;SDS011;717;51.522;7.266;2022-08-21T06:57:02;9.02;;;7.00;;
1446;SDS011;717;51.522;7.266;2022-08-21T06:59:30;11.32;;;6.82;;
1446;SDS011;717;51.522;7.266;2022-08-21T07:01:56;9.50;;;7.32;;
1446;SDS011;717;51.522;7.266;2022-08-21T07:04:25;9.77;;;7.25;;
1446;SDS011;717;51.522;7.266;2022-08-21T07:06:51;9.18;;;6.70;;
1446;SDS011;717;51.522;7.266;2022-08-21T07:09:18;13.27;;;7.53;;
1446;SDS011;717;51.522;7.266;2022-08-21T07:11:45;10.43;;;7.30;;
1446;SDS011;717;51.522;7.266;2022-08-21T07:14:16;9.90;;;7.22;;
1446;SDS011;717;51.522;7.266;2022-08-21T07:16:43;11.63;;;7.22;;
1446;SDS011;717;51.522;7.266;2022-08-21T07:19:10;12.18;;;8.32;;
1446;SDS011;717;51.522;7.266;2022-08-21T07:21:38;11.98;;;7.75;;
1446;SDS011;717;51.522;7.266;2022-08-21T07:24:05;10.15;;;7.30;;
1446;SDS011;717;51.522;7.266;2022-08-21T07:26:32;12.38;;;7.63;;
1446;SDS011;717;51.522;7.266;2022-08-21T07:28:59;12.98;;;7.20;;
1446;SDS011;717;51.522;7.266;2022-08-21T07:31:25;11.73;;;7.22;;
1446;SDS011;717;51.522;7.266;2022-08-21T07:33:52;9.98;;;6.57;;
1446;SDS011;717;51.522;7.266;2022-08-21T07:36:19;14.00;;;7.80;;
1446;SDS011;717;51.522;7.266;2022-08-21T07:38:48;10.18;;;6.60;;
1446;SDS011;717;51.522;7.266;2022-08-21T07:41:15;9.68;;;6.93;;
1446;SDS011;717;51.522;7.266;2022-08-21T07:43:44;12.45;;;6.82;;
1446;SDS011;717;51.522;7.266;2022-08-21T07:46:11;9.00;;;6.32;;
1446;SDS011;717;51.522;7.266;2022-08-21T07:48:39;13.77;;;5.80;;
1446;SDS011;717;51.522;7.266;2022-08-21T07:51:07;7.30;;;4.78;;
1446;SDS011;717;51.522;7.266;2022-08-21T07:53:34;6.50;;;4.00;;
1446;SDS011;717;51.522;7.266;2022-08-21T07:56:04;7.65;;;3.90;;
1446;SDS011;717;51.522;7.266;2022-08-21T07:58:32;6.50;;;3.20;;
1446;SDS011;717;51.522;7.266;2022-08-21T08:00:58;7.53;;;3.08;;
1446;SDS011;717;51.522;7.266;2022-08-21T08:03:26;5.68;;;2.85;;
1446;SDS011;717;51.522;7.266;2022-08-21T08:05:52;6.93;;;2.70;;
1446;SDS011;717;51.522;7.266;2022-08-21T08:08:20;5.45;;;2.85;;
1446;SDS011;717;51.522;7.266;2022-08-21T08:10:46;7.82;;;3.05;;
1446;SDS011;717;51.522;7.266;2022-08-21T08:13:15;8.00;;;2.28;;
1446;SDS011;717;51.522;7.266;2022-08-21T08:15:42;5.88;;;2.35;;
1446;SDS011;717;51.522;7.266;2022-08-21T08:18:09;4.85;;;1.98;;
1446;SDS011;717;51.522;7.266;2022-08-21T08:20:36;5.57;;;2.20;;
1446;SDS011;717;51.522;7.266;2022-08-21T08:23:03;5.18;;;2.03;;
1446;SDS011;717;51.522;7.266;2022-08-21T08:25:29;4.88;;;2.42;;
1446;SDS011;717;51.522;7.266;2022-08-21T08:27:57;5.63;;;2.60;;
1446;SDS011;717;51.522;7.266;2022-08-21T08:30:25;4.80;;;2.08;;
1446;SDS011;717;51.522;7.266;2022-08-21T08:32:51;5.18;;;2.05;;
1446;SDS011;717;51.522;7.266;2022-08-21T08:35:18;5.13;;;2.40;;
1446;SDS011;717;51.522;7.266;2022-08-21T08:37:45;6.40;;;2.17;;
1446;SDS011;717;51.522;7.266;2022-08-21T08:40:13;4.18;;;1.90;;
1446;SDS011;717;51.522;7.266;2022-08-21T08:42:44;3.05;;;1.58;;
1446;SDS011;717;51.522;7.266;2022-08-21T08:45:16;4.80;;;2.00;;
1446;SDS011;717;51.522;7.266;2022-08-21T08:47:49;5.05;;;2.10;;
1446;SDS011;717;51.522;7.266;2022-08-21T08:50:24;7.80;;;1.90;;
1446;SDS011;717;51.522;7.266;2022-08-21T08:52:57;5.30;;;2.10;;
1446;SDS011;717;51.522;7.266;2022-08-21T08:55:28;4.22;;;1.88;;
1446;SDS011;717;51.522;7.266;2022-08-21T08:58:01;4.97;;;2.15;;
1446;SDS011;717;51.522;7.266;2022-08-21T09:00:28;4.75;;;2.15;;
1446;SDS011;717;51.522;7.266;2022-08-21T09:02:59;4.90;;;2.40;;
1446;SDS011;717;51.522;7.266;2022-08-21T09:05:28;7.25;;;2.00;;
1446;SDS011;717;51.522;7.266;2022-08-21T09:08:15;5.05;;;2.47;;
1446;SDS011;717;51.522;7.266;2022-08-21T09:10:57;4.60;;;1.80;;
1446;SDS011;717;51.522;7.266;2022-08-21T09:13:30;6.82;;;2.65;;
1446;SDS011;717;51.522;7.266;2022-08-21T09:16:09;6.35;;;2.00;;
1446;SDS011;717;51.522;7.266;2022-08-21T09:18:51;5.72;;;1.60;;
1446;SDS011;717;51.522;7.266;2022-08-21T09:21:25;6.15;;;1.77;;
1446;SDS011;717;51.522;7.266;2022-08-21T09:24:07;4.47;;;1.95;;
1446;SDS011;717;51.522;7.266;2022-08-21T09:26:50;5.18;;;2.10;;
1446;SDS011;717;51.522;7.266;2022-08-21T09:29:23;7.40;;;2.47;;
1446;SDS011;717;51.522;7.266;2022-08-21T09:31:53;5.05;;;2.10;;
1446;SDS011;717;51.522;7.266;2022-08-21T09:34:25;5.03;;;1.85;;
1446;SDS011;717;51.522;7.266;2022-08-21T09:36:53;7.22;;;2.55;;
1446;SDS011;717;51.522;7.266;2022-08-21T09:39:22;6.32;;;2.13;;
1446;SDS011;717;51.522;7.266;2022-08-21T09:41:55;6.72;;;1.58;;
1446;SDS011;717;51.522;7.266;2022-08-21T09:44:24;5.85;;;1.90;;
1446;SDS011;717;51.522;7.266;2022-08-21T09:46:53;4.57;;;1.30;;
1446;SDS011;717;51.522;7.266;2022-08-21T09:49:31;5.30;;;1.70;;
1446;SDS011;717;51.522;7.266;2022-08-21T09:51:59;3.47;;;1.52;;
1446;SDS011;717;51.522;7.266;2022-08-21T09:54:29;4.13;;;1.83;;
1446;SDS011;717;51.522;7.266;2022-08-21T09:56:59;5.40;;;1.48;;
1446;SDS011;717;51.522;7.266;2022-08-21T09:59:44;6.43;;;2.30;;
1446;SDS011;717;51.522;7.266;2022-08-21T10:02:21;3.15;;;1.50;;
1446;SDS011;717;51.522;7.266;2022-08-21T10:04:53;4.68;;;1.48;;
1446;SDS011;717;51.522;7.266;2022-08-21T10:07:22;3.55;;;1.45;;
1446;SDS011;717;51.522;7.266;2022-08-21T10:09:57;6.18;;;2.00;;
1446;SDS011;717;51.522;7.266;2022-08-21T10:12:26;4.85;;;1.20;;
1446;SDS011;717;51.522;7.266;2022-08-21T10:15:01;5.78;;;1.30;;
1446;SDS011;717;51.522;7.266;2022-08-21T10:17:36;4.05;;;1.50;;
1446;SDS011;717;51.522;7.266;2022-08-21T10:20:11;3.97;;;1.40;;
1446;SDS011;717;51.522;7.266;2022-08-21T10:22:45;2.97;;;1.20;;
1446;SDS011;717;51.522;7.266;2022-08-21T10:25:21;3.53;;;1.00;;
1446;SDS011;717;51.522;7.266;2022-08-21T10:28:00;3.13;;;1.15;;
1446;SDS011;717;51.522;7.266;2022-08-21T10:30:35;2.55;;;1.10;;
1446;SDS011;717;51.522;7.266;2022-08-21T10:33:12;2.65;;;1.10;;
1446;SDS011;717;51.522;7.266;2022-08-21T10:35:50;2.50;;;1.02;;
1446;SDS011;717;51.522;7.266;2022-08-21T10:41:32;4.05;;;1.35;;
1446;SDS011;717;51.522;7.266;2022-08-21T10:44:12;2.90;;;1.00;;
1446;SDS011;717;51.522;7.266;2022-08-21T10:46:49;3.28;;;1.30;;
1446;SDS011;717;51.522;7.266;2022-08-21T10:49:22;3.30;;;1.10;;
1446;SDS011;717;51.522;7.266;2022-08-21T10:52:01;2.25;;;1.00;;
1446;SDS011;717;51.522;7.266;2022-08-21T10:54:38;2.92;;;1.10;;
1446;SDS011;717;51.522;7.266;2022-08-21T10:57:16;2.30;;;0.88;;
1446;SDS011;717;51.522;7.266;2022-08-21T10:59:49;1.92;;;1.10;;
1446;SDS011;717;51.522;7.266;2022-08-21T11:02:22;3.03;;;1.20;;
1446;SDS011;717;51.522;7.266;2022-08-21T11:04:56;3.30;;;0.98;;
1446;SDS011;717;51.522;7.266;2022-08-21T11:07:30;1.65;;;0.80;;
1446;SDS011;717;51.522;7.266;2022-08-21T11:10:03;1.88;;;0.90;;
1446;SDS011;717;51.522;7.266;2022-08-21T11:12:39;2.95;;;0.85;;
1446;SDS011;717;51.522;7.266;2022-08-21T11:15:11;3.22;;;0.88;;
1446;SDS011;717;51.522;7.266;2022-08-21T11:17:50;2.47;;;1.00;;
1446;SDS011;717;51.522;7.266;2022-08-21T11:20:23;1.40;;;0.95;;
1446;SDS011;717;51.522;7.266;2022-08-21T11:22:58;3.55;;;0.90;;
1446;SDS011;717;51.522;7.266;2022-08-21T11:25:31;1.98;;;0.70;;
1446;SDS011;717;51.522;7.266;2022-08-21T11:28:02;2.33;;;0.70;;
1446;SDS011;717;51.522;7.266;2022-08-21T11:30:35;2.08;;;0.90;;
1446;SDS011;717;51.522;7.266;2022-08-21T11:33:22;1.67;;;0.57;;
1446;SDS011;717;51.522;7.266;2022-08-21T11:36:02;1.90;;;0.60;;
1446;SDS011;717;51.522;7.266;2022-08-21T11:38:42;1.05;;;0.60;;
1446;SDS011;717;51.522;7.266;2022-08-21T11:41:18;1.90;;;0.68;;
1446;SDS011;717;51.522;7.266;2022-08-21T11:43:52;3.20;;;0.80;;
1446;SDS011;717;51.522;7.266;2022-08-21T11:46:25;1.60;;;0.65;;
1446;SDS011;717;51.522;7.266;2022-08-21T11:49:15;3.05;;;0.80;;
1446;SDS011;717;51.522;7.266;2022-08-21T11:51:57;2.65;;;0.70;;
1446;SDS011;717;51.522;7.266;2022-08-21T11:54:40;3.20;;;0.80;;
1446;SDS011;717;51.522;7.266;2022-08-21T11:57:13;1.15;;;0.60;;
1446;SDS011;717;51.522;7.266;2022-08-21T11:59:45;1.95;;;0.70;;
1446;SDS011;717;51.522;7.266;2022-08-21T12:02:18;1.85;;;0.68;;
1446;SDS011;717;51.522;7.266;2022-08-21T12:04:49;1.65;;;0.63;;
1446;SDS011;717;51.522;7.266;2022-08-21T12:07:29;2.88;;;0.95;;
1446;SDS011;717;51.522;7.266;2022-08-21T12:10:01;2.20;;;0.70;;
1446;SDS011;717;51.522;7.266;2022-08-21T12:12:31;2.42;;;0.63;;
1446;SDS011;717;51.522;7.266;2022-08-21T12:15:12;1.60;;;0.70;;
1446;SDS011;717;51.522;7.266;2022-08-21T12:17:51;2.65;;;0.82;;
1446;SDS011;717;51.522;7.266;2022-08-21T12:20:23;2.25;;;0.70;;
1446;SDS011;717;51.522;7.266;2022-08-21T12:23:15;2.70;;;0.93;;
1446;SDS011;717;51.522;7.266;2022-08-21T12:25:48;2.95;;;0.80;;
1446;SDS011;717;51.522;7.266;2022-08-21T12:28:27;2.15;;;0.80;;
1446;SDS011;717;51.522;7.266;2022-08-21T12:30:56;1.42;;;0.55;;
1446;SDS011;717;51.522;7.266;2022-08-21T12:33:24;1.60;;;0.63;;
1446;SDS011;717;51.522;7.266;2022-08-21T12:36:00;1.67;;;0.90;;
1446;SDS011;717;51.522;7.266;2022-08-21T12:38:32;2.38;;;0.85;;
1446;SDS011;717;51.522;7.266;2022-08-21T12:41:09;3.63;;;0.80;;
1446;SDS011;717;51.522;7.266;2022-08-21T12:43:39;2.33;;;1.00;;
1446;SDS011;717;51.522;7.266;2022-08-21T12:46:14;4.40;;;1.17;;
1446;SDS011;717;51.522;7.266;2022-08-21T12:48:44;2.20;;;0.85;;
1446;SDS011;717;51.522;7.266;2022-08-21T12:51:15;2.22;;;1.00;;
1446;SDS011;717;51.522;7.266;2022-08-21T12:53:45;2.05;;;0.80;;
1446;SDS011;717;51.522;7.266;2022-08-21T12:56:16;3.75;;;0.85;;
1446;SDS011;717;51.522;7.266;2022-08-21T12:58:45;1.40;;;0.77;;
1446;SDS011;717;51.522;7.266;2022-08-21T13:01:15;2.72;;;1.00;;
1446;SDS011;717;51.522;7.266;2022-08-21T13:03:47;2.42;;;1.00;;
1446;SDS011;717;51.522;7.266;2022-08-21T13:06:16;2.08;;;1.02;;
1446;SDS011;717;51.522;7.266;2022-08-21T13:08:45;1.55;;;0.80;;
1446;SDS011;717;51.522;7.266;2022-08-21T13:11:16;2.80;;;0.85;;
1446;SDS011;717;51.522;7.266;2022-08-21T13:13:48;5.22;;;1.13;;
1446;SDS011;717;51.522;7.266;2022-08-21T13:16:18;2.03;;;0.75;;
1446;SDS011;717;51.522;7.266;2022-08-21T13:18:52;2.97;;;0.90;;
1446;SDS011;717;51.522;7.266;2022-08-21T13:21:26;2.13;;;0.60;;
1446;SDS011;717;51.522;7.266;2022-08-21T13:23:54;1.38;;;0.73;;
1446;SDS011;717;51.522;7.266;2022-08-21T13:26:42;0.80;;;0.52;;
1446;SDS011;717;51.522;7.266;2022-08-21T13:29:09;1.50;;;0.70;;
1446;SDS011;717;51.522;7.266;2022-08-21T13:31:38;2.67;;;0.77;;
1446;SDS011;717;51.522;7.266;2022-08-21T13:34:08;2.25;;;0.93;;
1446;SDS011;717;51.522;7.266;2022-08-21T13:36:37;1.45;;;0.75;;
1446;SDS011;717;51.522;7.266;2022-08-21T13:39:08;2.10;;;0.70;;
1446;SDS011;717;51.522;7.266;2022-08-21T13:41:37;3.35;;;0.70;;
1446;SDS011;717;51.522;7.266;2022-08-21T13:44:15;1.98;;;0.50;;
1446;SDS011;717;51.522;7.266;2022-08-21T13:46:44;0.82;;;0.40;;
1446;SDS011;717;51.522;7.266;2022-08-21T13:49:13;1.08;;;0.70;;
1446;SDS011;717;51.522;7.266;2022-08-21T13:51:42;0.82;;;0.22;;
1446;SDS011;717;51.522;7.266;2022-08-21T13:54:18;1.25;;;0.40;;
1446;SDS011;717;51.522;7.266;2022-08-21T13:56:50;1.63;;;0.70;;
1446;SDS011;717;51.522;7.266;2022-08-21T13:59:24;0.88;;;0.50;;
1446;SDS011;717;51.522;7.266;2022-08-21T14:01:54;2.35;;;0.70;;
1446;SDS011;717;51.522;7.266;2022-08-21T14:04:25;1.52;;;0.40;;
1446;SDS011;717;51.522;7.266;2022-08-21T14:06:57;0.60;;;0.45;;
1446;SDS011;717;51.522;7.266;2022-08-21T14:09:26;1.58;;;0.60;;
1446;SDS011;717;51.522;7.266;2022-08-21T14:11:55;1.20;;;0.40;;
1446;SDS011;717;51.522;7.266;2022-08-21T14:14:26;1.23;;;0.80;;
1446;SDS011;717;51.522;7.266;2022-08-21T14:16:56;2.78;;;0.55;;
1446;SDS011;717;51.522;7.266;2022-08-21T14:19:27;2.28;;;0.43;;
1446;SDS011;717;51.522;7.266;2022-08-21T14:22:12;1.13;;;0.60;;
1446;SDS011;717;51.522;7.266;2022-08-21T14:24:49;1.38;;;0.63;;
1446;SDS011;717;51.522;7.266;2022-08-21T14:27:24;1.67;;;0.63;;
1446;SDS011;717;51.522;7.266;2022-08-21T14:29:56;1.75;;;0.50;;
1446;SDS011;717;51.522;7.266;2022-08-21T14:32:26;3.20;;;0.80;;
1446;SDS011;717;51.522;7.266;2022-08-21T14:34:55;2.28;;;0.98;;
1446;SDS011;717;51.522;7.266;2022-08-21T14:37:22;1.65;;;0.80;;
1446;SDS011;717;51.522;7.266;2022-08-21T14:39:50;1.08;;;0.52;;
1446;SDS011;717;51.522;7.266;2022-08-21T14:42:17;2.03;;;0.70;;
1446;SDS011;717;51.522;7.266;2022-08-21T14:44:44;1.45;;;0.70;;
1446;SDS011;717;51.522;7.266;2022-08-21T14:47:12;0.88;;;0.50;;
1446;SDS011;717;51.522;7.266;2022-08-21T14:49:39;1.70;;;0.57;;
1446;SDS011;717;51.522;7.266;2022-08-21T14:52:06;1.42;;;0.50;;
1446;SDS011;717;51.522;7.266;2022-08-21T14:54:33;1.13;;;0.57;;
1446;SDS011;717;51.522;7.266;2022-08-21T14:57:00;1.95;;;0.60;;
1446;SDS011;717;51.522;7.266;2022-08-21T14:59:29;1.58;;;0.70;;
1446;SDS011;717;51.522;7.266;2022-08-21T15:01:57;1.70;;;0.80;;
1446;SDS011;717;51.522;7.266;2022-08-21T15:04:25;2.65;;;0.70;;
1446;SDS011;717;51.522;7.266;2022-08-21T15:06:52;2.88;;;1.00;;
1446;SDS011;717;51.522;7.266;2022-08-21T15:09:19;1.70;;;0.77;;
1446;SDS011;717;51.522;7.266;2022-08-21T15:11:45;1.33;;;0.80;;
1446;SDS011;717;51.522;7.266;2022-08-21T15:14:18;1.60;;;0.60;;
1446;SDS011;717;51.522;7.266;2022-08-21T15:16:47;1.08;;;0.70;;
1446;SDS011;717;51.522;7.266;2022-08-21T15:19:16;2.30;;;0.93;;
1446;SDS011;717;51.522;7.266;2022-08-21T15:21:44;4.47;;;0.70;;
1446;SDS011;717;51.522;7.266;2022-08-21T15:24:11;1.40;;;0.70;;
1446;SDS011;717;51.522;7.266;2022-08-21T15:26:38;3.10;;;0.70;;
1446;SDS011;717;51.522;7.266;2022-08-21T15:29:05;1.23;;;0.80;;
1446;SDS011;717;51.522;7.266;2022-08-21T15:31:34;2.30;;;0.93;;
1446;SDS011;717;51.522;7.266;2022-08-21T15:34:01;2.13;;;0.90;;
1446;SDS011;717;51.522;7.266;2022-08-21T15:36:28;1.75;;;0.75;;
1446;SDS011;717;51.522;7.266;2022-08-21T15:38:56;1.80;;;0.82;;
1446;SDS011;717;51.522;7.266;2022-08-21T15:41:22;2.35;;;1.00;;
1446;SDS011;717;51.522;7.266;2022-08-21T15:43:50;2.00;;;0.82;;
1446;SDS011;717;51.522;7.266;2022-08-21T15:46:19;3.25;;;1.05;;
1446;SDS011;717;51.522;7.266;2022-08-21T15:48:47;1.30;;;0.68;;